Terminal Aerodrome Forecast
Issued by NWS

Current Version | Previous Version | Text Only | Print | Product List | Glossary On
Versions: 1 2 3 4 5 6 7 8 9 10 11 12 13 14
000
FTUS44 KEPZ 021747
TAFLRU
TAF
KLRU 021747Z 0218/0318 20007KT P6SM FEW070 FEW120 SCT250
     FM022100 24008KT P6SM VCTS SCT070CB SCT100 SCT250
     FM030600 30007KT P6SM SCT100 BKN250=

USA.gov is the U.S. government's official web portal to all federal, state and local government web resources and services.